Ariel, Mississippi
Current Conditions -  °F | °C
As of 7:53 AM on Thursday 30 Oct 2014 (Local Time) from KMCB Reporting Station
Clear Clear  
Wind Chill: 11°   Ceiling: Unl
Heat Index: 11°   Visibility: 10mi
Dew Point:   Wind: 5mph
Humidity: 69%   Direction: 20°NNE
Pressure: 30.13"   Gusts: NA
Location:  31.1819°N, 90.9008°W
Report Text: KMCB 301253Z AUTO 02004KT 10SM CLR 11/06 A3013 RMK AO2 SLP200 T01110056
Loading
Personal Weather Stations






























Interactive Weather Map
Tropical Storm Tracking
New forecast layout! Learn more

10-Day Weather Forecast

Advertisements
Track Severe Weather on mobile